Time;durP1;ratioP1;P1;durP2;ratioP2;P2;SDS_P1;SDS_P2;PMS_P1;PMS_P2;Temp;Humidity;BMP_temperature;BMP_pressure;BME280_temperature;BME280_humidity;BME280_pressure;Samples;Min_cycle;Max_cycle;Signal;HPM_P1;HPM_P2
2021/10/30 00:01:01;;;;;;;1999.90;999.90;;;15.20;99.90;;;;;;5076409;28;20218;-64
2021/10/30 00:03:28;;;;;;;1999.90;999.90;;;15.20;99.90;;;;;;5076370;28;20173;-64
2021/10/30 00:05:55;;;;;;;1999.90;999.90;;;15.10;99.90;;;;;;5076145;28;20175;-64
2021/10/30 00:08:24;;;;;;;1999.90;999.90;;;15.10;99.90;;;;;;5076109;28;20507;-64
2021/10/30 00:10:51;;;;;;;1999.90;999.90;;;15.00;99.90;;;;;;5076077;28;20622;-64
2021/10/30 00:13:17;;;;;;;1999.90;999.90;;;15.00;99.90;;;;;;5075835;28;20171;-64
2021/10/30 00:15:44;;;;;;;1999.90;999.90;;;15.00;99.90;;;;;;5076045;28;20207;-64
2021/10/30 00:18:11;;;;;;;1999.90;999.90;;;15.00;99.90;;;;;;5075969;28;20167;-64
2021/10/30 00:20:38;;;;;;;1999.90;999.90;;;15.00;99.90;;;;;;5075887;28;20183;-64
2021/10/30 00:23:05;;;;;;;1999.90;999.90;;;15.10;99.90;;;;;;5075799;28;20169;-64
2021/10/30 00:25:32;;;;;;;1999.90;999.90;;;15.10;99.90;;;;;;5075947;28;20195;-64
2021/10/30 00:27:59;;;;;;;1999.90;999.90;;;15.00;99.90;;;;;;5075836;28;20234;-64
2021/10/30 00:30:26;;;;;;;1999.90;999.90;;;14.90;99.90;;;;;;5075738;28;20527;-64
2021/10/30 00:32:52;;;;;;;1999.90;999.90;;;14.80;99.90;;;;;;5075730;28;20175;-64
2021/10/30 00:35:19;;;;;;;1999.90;999.90;;;14.80;99.90;;;;;;5075478;28;20227;-64
2021/10/30 00:37:46;;;;;;;1999.90;999.90;;;14.80;99.90;;;;;;5075600;28;20172;-64
2021/10/30 00:40:13;;;;;;;1999.90;999.90;;;14.80;99.90;;;;;;5075518;28;20175;-64
2021/10/30 00:42:41;;;;;;;1999.90;999.90;;;14.70;99.90;;;;;;5075564;28;20210;-65
2021/10/30 00:45:09;;;;;;;1999.90;999.90;;;14.60;99.90;;;;;;5075437;28;20218;-64
2021/10/30 00:47:36;;;;;;;1999.90;999.90;;;14.60;99.90;;;;;;5075462;28;20176;-63
2021/10/30 00:50:04;;;;;;;1999.90;999.90;;;14.60;99.90;;;;;;5075523;28;20177;-65
2021/10/30 00:52:34;;;;;;;1999.90;999.90;;;14.60;99.90;;;;;;5075426;28;20168;-64
2021/10/30 00:55:03;;;;;;;1999.90;999.90;;;14.50;99.90;;;;;;5075251;28;20200;-64
2021/10/30 00:57:30;;;;;;;1999.90;999.90;;;14.50;99.90;;;;;;5075328;28;20169;-64
2021/10/30 00:59:58;;;;;;;1999.90;999.90;;;14.50;99.90;;;;;;5075192;28;20638;-64
2021/10/30 01:02:25;;;;;;;1999.90;999.90;;;14.60;99.90;;;;;;5075156;28;20175;-64
2021/10/30 01:04:52;;;;;;;1999.90;999.90;;;14.50;99.90;;;;;;5075092;28;20176;-64
2021/10/30 01:07:21;;;;;;;1999.90;999.90;;;14.40;99.90;;;;;;5074760;28;20631;-64
2021/10/30 01:09:49;;;;;;;1999.90;999.90;;;14.40;99.90;;;;;;5074933;28;20187;-64
2021/10/30 01:12:18;;;;;;;1999.90;999.90;;;14.40;99.90;;;;;;5075040;28;20313;-64
2021/10/30 01:14:45;;;;;;;1999.90;999.90;;;14.40;99.90;;;;;;5074485;28;20322;-64
2021/10/30 01:17:12;;;;;;;1999.90;999.90;;;14.30;99.90;;;;;;5074860;28;20169;-64
2021/10/30 01:19:39;;;;;;;1999.90;999.90;;;14.40;99.90;;;;;;5074885;28;20173;-64
2021/10/30 01:22:06;;;;;;;1999.90;999.90;;;14.50;99.90;;;;;;5074894;28;20171;-64
2021/10/30 01:24:33;;;;;;;1999.90;999.90;;;14.50;99.90;;;;;;5074664;28;20270;-64
2021/10/30 01:27:00;;;;;;;1999.90;999.90;;;14.50;99.90;;;;;;5074747;28;20173;-64
2021/10/30 01:29:29;;;;;;;1999.90;999.90;;;14.50;99.90;;;;;;5074659;28;20259;-64
2021/10/30 01:31:55;;;;;;;1999.90;999.90;;;14.50;99.90;;;;;;5074513;28;20172;-64
2021/10/30 01:34:27;;;;;;;1999.90;999.90;;;14.50;99.90;;;;;;5074463;28;20196;-63
2021/10/30 01:36:55;;;;;;;1999.90;999.90;;;14.50;99.90;;;;;;5074502;28;20545;-64
2021/10/30 01:39:25;;;;;;;1999.90;999.90;;;14.40;99.90;;;;;;5074259;28;20246;-64
2021/10/30 01:41:52;;;;;;;1999.90;999.90;;;14.40;99.90;;;;;;5074380;28;20183;-63
2021/10/30 01:44:19;;;;;;;1999.90;999.90;;;14.20;99.90;;;;;;5074332;28;20259;-64
2021/10/30 01:46:46;;;;;;;1999.90;999.90;;;14.20;99.90;;;;;;5074324;28;20175;-64
2021/10/30 01:49:13;;;;;;;1999.90;999.90;;;14.20;99.90;;;;;;5074211;28;20175;-64
2021/10/30 01:51:39;;;;;;;1999.90;999.90;;;14.20;99.90;;;;;;5074275;28;20164;-64
2021/10/30 01:54:06;;;;;;;1999.90;999.90;;;14.10;99.90;;;;;;5074227;28;20200;-64
2021/10/30 01:56:33;;;;;;;1999.90;999.90;;;14.00;99.90;;;;;;5074060;28;20183;-64
2021/10/30 01:59:00;;;;;;;1999.90;999.90;;;14.00;99.90;;;;;;5072795;28;20529;-64
2021/10/30 02:01:27;;;;;;;1999.90;999.90;;;14.00;99.90;;;;;;5073996;28;20172;-64
2021/10/30 02:03:54;;;;;;;1999.90;999.90;;;13.90;99.90;;;;;;5073988;28;20169;-64
2021/10/30 02:06:20;;;;;;;1999.90;999.90;;;13.80;99.90;;;;;;5073853;28;20516;-64
2021/10/30 02:08:47;;;;;;;1999.90;999.90;;;13.80;99.90;;;;;;5074337;28;20529;-64
2021/10/30 02:11:14;;;;;;;1999.90;999.90;;;13.70;99.90;;;;;;5073898;28;20627;-64
2021/10/30 02:13:41;;;;;;;1999.90;999.90;;;13.70;99.90;;;;;;5073657;28;20167;-64
2021/10/30 02:16:10;;;;;;;1999.90;999.90;;;13.80;99.90;;;;;;5073764;28;20227;-63
2021/10/30 02:18:37;;;;;;;1999.90;999.90;;;13.90;99.90;;;;;;5073627;28;20677;-64
2021/10/30 02:21:04;;;;;;;1999.90;999.90;;;14.00;99.90;;;;;;5073180;28;20177;-64
2021/10/30 02:23:31;;;;;;;1999.90;999.90;;;14.00;99.90;;;;;;5073470;28;20271;-64
2021/10/30 02:25:58;;;;;;;1999.90;999.90;;;14.00;99.90;;;;;;5073524;28;20641;-64
2021/10/30 02:28:25;;;;;;;1999.90;999.90;;;14.10;99.90;;;;;;5073469;28;20172;-64
2021/10/30 02:30:51;;;;;;;1999.90;999.90;;;14.10;99.90;;;;;;5073434;28;20217;-63
2021/10/30 02:33:18;;;;;;;1999.90;999.90;;;14.00;99.90;;;;;;5073327;28;20267;-64
2021/10/30 02:35:45;;;;;;;1999.90;999.90;;;14.10;99.90;;;;;;5073298;28;20279;-63
2021/10/30 02:38:12;;;;;;;1999.90;999.90;;;14.00;99.90;;;;;;5073510;28;20176;-64
2021/10/30 02:40:39;;;;;;;1999.90;999.90;;;14.00;99.90;;;;;;5073255;28;20724;-64
2021/10/30 02:43:06;;;;;;;1999.90;999.90;;;13.90;99.90;;;;;;5073317;28;20196;-64
2021/10/30 02:45:33;;;;;;;1999.90;999.90;;;13.90;99.90;;;;;;5073107;28;20187;-64
2021/10/30 02:48:01;;;;;;;1999.90;999.90;;;14.00;99.90;;;;;;5073082;28;20534;-65
2021/10/30 02:50:28;;;;;;;1999.90;999.90;;;14.00;99.90;;;;;;5073035;28;20590;-64
2021/10/30 02:52:55;;;;;;;1999.90;999.90;;;14.00;99.90;;;;;;5073160;28;20219;-64
2021/10/30 02:55:23;;;;;;;1999.90;999.90;;;14.10;99.90;;;;;;5072876;28;20218;-64
2021/10/30 02:57:51;;;;;;;1999.90;999.90;;;14.10;99.90;;;;;;5073020;28;20172;-64
2021/10/30 03:00:18;;;;;;;1999.90;999.90;;;14.00;99.90;;;;;;5072954;28;20642;-65
2021/10/30 03:02:45;;;;;;;1999.90;999.90;;;14.00;99.90;;;;;;5073047;28;20221;-65
2021/10/30 03:05:12;;;;;;;1999.90;999.90;;;14.00;99.90;;;;;;5073064;28;20172;-65
2021/10/30 03:07:39;;;;;;;1999.90;999.90;;;13.90;99.90;;;;;;5072868;28;20210;-65
2021/10/30 03:10:07;;;;;;;1999.90;999.90;;;13.90;99.90;;;;;;5072833;28;20176;-65
2021/10/30 03:12:34;;;;;;;1999.90;999.90;;;13.80;99.90;;;;;;5072844;28;20172;-65
2021/10/30 03:15:01;;;;;;;1999.90;999.90;;;13.80;99.90;;;;;;5072614;28;20220;-65
2021/10/30 03:17:28;;;;;;;1999.90;999.90;;;13.80;99.90;;;;;;5072927;28;20169;-65
2021/10/30 03:19:55;;;;;;;1999.90;999.90;;;13.70;99.90;;;;;;5072896;28;20160;-65
2021/10/30 03:22:22;;;;;;;1999.90;999.90;;;13.70;99.90;;;;;;5072818;28;20164;-64
2021/10/30 03:24:49;;;;;;;1999.90;999.90;;;13.60;99.90;;;;;;5072692;28;20183;-64
2021/10/30 03:27:15;;;;;;;1999.90;999.90;;;13.60;99.90;;;;;;5072775;28;20165;-65
2021/10/30 03:29:42;;;;;;;1999.90;999.90;;;13.50;99.90;;;;;;5072708;28;20172;-65
2021/10/30 03:32:09;;;;;;;1999.90;999.90;;;13.40;99.90;;;;;;5076225;28;20172;-65
2021/10/30 03:34:36;;;;;;;1999.90;999.90;;;13.40;99.90;;;;;;5076889;28;20250;-65
2021/10/30 03:37:03;;;;;;;1999.90;999.90;;;13.40;99.90;;;;;;5076783;28;20165;-65
2021/10/30 03:39:30;;;;;;;1999.90;999.90;;;13.40;99.90;;;;;;5076696;28;20642;-65
2021/10/30 03:41:57;;;;;;;1999.90;999.90;;;13.40;99.90;;;;;;5076674;28;20161;-64
2021/10/30 03:44:24;;;;;;;1999.90;999.90;;;13.30;99.90;;;;;;5076614;28;20161;-64
2021/10/30 03:46:51;;;;;;;1999.90;999.90;;;13.30;99.90;;;;;;5076647;28;20298;-64
2021/10/30 03:49:18;;;;;;;1999.90;999.90;;;13.40;99.90;;;;;;5076680;28;20225;-64
2021/10/30 03:51:44;;;;;;;1999.90;999.90;;;13.40;99.90;;;;;;5076399;28;20626;-65
2021/10/30 03:54:12;;;;;;;1999.90;999.90;;;13.40;99.90;;;;;;5076359;28;20661;-65
2021/10/30 03:56:39;;;;;;;1999.90;999.90;;;13.40;99.90;;;;;;5076361;28;20173;-64
2021/10/30 03:59:06;;;;;;;1999.90;999.90;;;13.40;99.90;;;;;;5076366;28;20638;-65
2021/10/30 04:01:33;;;;;;;1999.90;999.90;;;13.40;99.90;;;;;;5076213;28;20196;-65
2021/10/30 04:03:59;;;;;;;1999.90;999.90;;;13.40;99.90;;;;;;5076227;28;20164;-65
2021/10/30 04:06:26;;;;;;;1999.90;999.90;;;13.40;99.90;;;;;;5075986;28;20539;-65
2021/10/30 04:08:53;;;;;;;1999.90;999.90;;;13.40;99.90;;;;;;5075878;28;20168;-65
2021/10/30 04:11:20;;;;;;;1999.90;999.90;;;13.40;99.90;;;;;;5075829;28;20204;-66
2021/10/30 04:13:47;;;;;;;1999.90;999.90;;;13.40;99.90;;;;;;5075568;28;20647;-65
2021/10/30 04:16:16;;;;;;;1999.90;999.90;;;13.40;99.90;;;;;;5075767;28;20196;-65
2021/10/30 04:18:44;;;;;;;1999.90;999.90;;;13.40;99.90;;;;;;5075797;28;20622;-65
2021/10/30 04:21:11;;;;;;;1999.90;999.90;;;13.40;99.90;;;;;;5075627;28;20165;-65
2021/10/30 04:23:38;;;;;;;1999.90;999.90;;;13.40;99.90;;;;;;5075729;28;20164;-65
2021/10/30 04:26:06;;;;;;;1999.90;999.90;;;13.50;99.90;;;;;;5075895;28;20524;-65
2021/10/30 04:28:33;;;;;;;1999.90;999.90;;;13.50;99.90;;;;;;5075554;28;20176;-65
2021/10/30 04:31:06;;;;;;;1999.90;999.90;;;13.50;99.90;;;;;;5075555;28;20212;-65
2021/10/30 04:33:33;;;;;;;1999.90;999.90;;;13.60;99.90;;;;;;5075479;28;20156;-65
2021/10/30 04:36:03;;;;;;;1999.90;999.90;;;13.50;99.90;;;;;;5075305;28;20197;-65
2021/10/30 04:38:31;;;;;;;1999.90;999.90;;;13.60;99.90;;;;;;5075341;28;20706;-65
2021/10/30 04:40:58;;;;;;;1999.90;999.90;;;13.70;99.90;;;;;;5075290;28;20185;-65
2021/10/30 04:43:25;;;;;;;1999.90;999.90;;;13.70;99.90;;;;;;5074538;28;20168;-65
2021/10/30 04:45:52;;;;;;;1999.90;999.90;;;13.80;99.90;;;;;;5075390;28;20222;-65
2021/10/30 04:48:19;;;;;;;1999.90;999.90;;;13.80;99.90;;;;;;5075294;28;20200;-65
2021/10/30 04:50:46;;;;;;;1999.90;999.90;;;13.80;99.90;;;;;;5075359;28;20168;-65
2021/10/30 04:53:13;;;;;;;1999.90;999.90;;;13.90;99.90;;;;;;5075318;28;20172;-65
2021/10/30 04:55:40;;;;;;;1999.90;999.90;;;14.00;99.90;;;;;;5075181;28;20212;-66
2021/10/30 04:58:07;;;;;;;1999.90;999.90;;;14.10;99.90;;;;;;5075283;28;20165;-65
2021/10/30 05:00:34;;;;;;;1999.90;999.90;;;14.10;99.90;;;;;;5075129;28;20168;-64
2021/10/30 05:03:01;;;;;;;1999.90;999.90;;;14.20;99.90;;;;;;5075163;28;20200;-64
2021/10/30 05:05:28;;;;;;;1999.90;999.90;;;14.30;99.90;;;;;;5075141;28;20191;-65
2021/10/30 05:07:55;;;;;;;1999.90;999.90;;;14.30;99.90;;;;;;5075194;28;20169;-65
2021/10/30 05:10:22;;;;;;;1999.90;999.90;;;14.40;99.90;;;;;;5075133;28;20185;-66
2021/10/30 05:12:49;;;;;;;1999.90;999.90;;;14.50;99.90;;;;;;5074851;28;20179;-65
2021/10/30 05:15:16;;;;;;;1999.90;999.90;;;14.60;99.90;;;;;;5074707;28;20245;-65
2021/10/30 05:17:43;;;;;;;1999.90;999.90;;;14.70;99.90;;;;;;5074944;28;20598;-66
2021/10/30 05:20:10;;;;;;;1999.90;999.90;;;14.90;99.90;;;;;;5074922;28;20168;-65
2021/10/30 05:22:37;;;;;;;1999.90;999.90;;;15.00;99.90;;;;;;5074826;28;20180;-65
2021/10/30 05:25:04;;;;;;;1999.90;999.90;;;15.10;99.90;;;;;;5074565;28;20164;-65
2021/10/30 05:27:31;;;;;;;1999.90;999.90;;;15.30;99.90;;;;;;5074515;28;20176;-65
2021/10/30 05:29:58;;;;;;;1999.90;999.90;;;15.50;99.90;;;;;;5074540;28;20168;-65
2021/10/30 05:32:25;;;;;;;1999.90;999.90;;;15.80;99.90;;;;;;5074451;28;20168;-66
2021/10/30 05:34:51;;;;;;;1999.90;999.90;;;15.90;99.90;;;;;;5073794;28;20212;-66
2021/10/30 05:37:18;;;;;;;1999.90;999.90;;;16.00;99.90;;;;;;5074266;28;20169;-66
2021/10/30 05:39:45;;;;;;;1999.90;999.90;;;16.10;99.90;;;;;;5074313;28;20242;-66
2021/10/30 05:42:13;;;;;;;1999.90;999.90;;;16.40;99.90;;;;;;5074401;28;20529;-66
2021/10/30 05:44:40;;;;;;;1999.90;999.90;;;16.60;99.90;;;;;;5074170;28;20180;-66
2021/10/30 05:47:09;;;;;;;1999.90;999.90;;;16.80;99.90;;;;;;5074211;28;20168;-65
2021/10/30 05:49:38;;;;;;;1999.90;999.90;;;16.90;99.90;;;;;;5074128;28;20172;-66
2021/10/30 05:52:07;;;;;;;1999.90;999.90;;;17.10;99.90;;;;;;5074023;28;20630;-65
2021/10/30 05:54:34;;;;;;;1999.90;999.90;;;17.10;99.90;;;;;;5072839;28;20192;-66
2021/10/30 05:57:01;;;;;;;1999.90;999.90;;;17.20;99.90;;;;;;5074040;28;20534;-64
2021/10/30 05:59:30;;;;;;;1999.90;999.90;;;17.30;99.90;;;;;;5074145;28;20200;-65
2021/10/30 06:01:57;;;;;;;1999.90;999.90;;;17.30;99.90;;;;;;5074067;28;20237;-65
2021/10/30 06:04:24;;;;;;;1999.90;999.90;;;17.20;99.90;;;;;;5073965;28;20187;-65
2021/10/30 06:06:50;;;;;;;1999.90;999.90;;;17.30;99.90;;;;;;5072490;28;20175;-65
2021/10/30 06:09:18;;;;;;;1999.90;999.90;;;17.40;99.90;;;;;;5073728;28;20630;-65
2021/10/30 06:11:45;;;;;;;1999.90;999.90;;;17.50;99.90;;;;;;5073761;28;20619;-65
2021/10/30 06:14:11;;;;;;;1999.90;999.90;;;17.60;99.90;;;;;;5073505;28;20723;-65
2021/10/30 06:16:38;;;;;;;1999.90;999.90;;;17.90;99.90;;;;;;5073711;28;20207;-65
2021/10/30 06:19:05;;;;;;;1999.90;999.90;;;18.10;99.90;;;;;;5073641;28;20192;-65
2021/10/30 06:21:32;;;;;;;1999.90;999.90;;;18.30;99.90;;;;;;5073876;28;20294;-65
2021/10/30 06:23:59;;;;;;;1999.90;999.90;;;18.40;99.90;;;;;;5073539;28;20306;-66
2021/10/30 06:26:27;;;;;;;1999.90;999.90;;;18.50;99.90;;;;;;5073459;28;20172;-66
2021/10/30 06:28:54;;;;;;;1999.90;999.90;;;18.60;99.90;;;;;;5073299;28;20180;-66
2021/10/30 06:31:22;;;;;;;1999.90;999.90;;;18.80;99.90;;;;;;5073171;28;20165;-66
2021/10/30 06:33:49;;;;;;;1999.90;999.90;;;19.00;99.90;;;;;;5073335;28;20204;-65
2021/10/30 06:36:16;;;;;;;1999.90;999.90;;;19.10;99.90;;;;;;5073206;28;20228;-65
2021/10/30 06:38:43;;;;;;;1999.90;999.90;;;19.30;99.90;;;;;;5073355;28;20203;-65
2021/10/30 06:41:12;;;;;;;1999.90;999.90;;;19.50;99.90;;;;;;5073228;28;20560;-65
2021/10/30 06:43:40;;;;;;;1999.90;999.90;;;19.70;99.90;;;;;;5073160;28;20289;-65
2021/10/30 06:46:08;;;;;;;1999.90;999.90;;;20.00;99.90;;;;;;5073128;28;20279;-66
2021/10/30 06:48:36;;;;;;;1999.90;999.90;;;20.10;99.90;;;;;;5073275;28;20199;-66
2021/10/30 06:51:04;;;;;;;1999.90;999.90;;;20.20;99.90;;;;;;5073212;28;20175;-66
2021/10/30 06:53:32;;;;;;;1999.90;999.90;;;20.30;99.90;;;;;;5073256;28;20161;-66
2021/10/30 06:55:59;;;;;;;1999.90;999.90;;;20.30;99.90;;;;;;5071695;28;20253;-65
2021/10/30 06:58:30;;;;;;;1999.90;999.90;;;20.50;99.90;;;;;;5073009;28;20211;-65
2021/10/30 07:00:58;;;;;;;1999.90;999.90;;;20.60;99.90;;;;;;5073031;28;20173;-65
2021/10/30 07:03:25;;;;;;;1999.90;999.90;;;20.60;99.90;;;;;;5072934;28;20534;-66
2021/10/30 07:05:52;;;;;;;1999.90;999.90;;;20.60;99.90;;;;;;5072641;28;20172;-66
2021/10/30 07:08:19;;;;;;;1999.90;999.90;;;20.60;99.90;;;;;;5072926;28;20156;-65
2021/10/30 07:10:46;;;;;;;1999.90;999.90;;;20.70;99.90;;;;;;5073120;28;20273;-66
2021/10/30 07:13:13;;;;;;;1999.90;999.90;;;20.70;99.90;;;;;;5072784;28;20658;-65
2021/10/30 07:15:46;;;;;;;1999.90;999.90;;;20.70;99.90;;;;;;5072538;28;20234;-65
2021/10/30 07:18:13;;;;;;;1999.90;999.90;;;20.80;99.90;;;;;;5072671;28;20180;-66
2021/10/30 07:20:40;;;;;;;1999.90;999.90;;;20.90;99.90;;;;;;5072802;28;20176;-65
2021/10/30 07:23:07;;;;;;;1999.90;999.90;;;21.20;99.90;;;;;;5072831;28;20222;-66
2021/10/30 07:25:34;;;;;;;1999.90;999.90;;;21.40;99.90;;;;;;5072855;28;20165;-65
2021/10/30 07:28:01;;;;;;;1999.90;999.90;;;21.60;99.90;;;;;;5072740;28;20210;-66
2021/10/30 07:30:28;;;;;;;1999.90;999.90;;;21.80;99.90;;;;;;5072782;28;20165;-66
2021/10/30 07:32:55;;;;;;;1999.90;999.90;;;22.00;99.90;;;;;;5072662;28;20531;-65
2021/10/30 07:35:23;;;;;;;1999.90;999.90;;;22.40;99.90;;;;;;5072520;28;20200;-65
2021/10/30 07:37:51;;;;;;;1999.90;999.90;;;23.00;99.90;;;;;;5072449;28;20164;-65
2021/10/30 07:40:18;;;;;;;1999.90;999.90;;;23.70;99.90;;;;;;5072580;28;20683;-65
2021/10/30 07:42:45;;;;;;;1999.90;999.90;;;24.20;93.20;;;;;;5072639;28;20194;-65
2021/10/30 07:45:12;;;;;;;1999.90;999.90;;;24.80;86.00;;;;;;5072645;28;20164;-66
2021/10/30 07:47:39;;;;;;;1999.90;999.90;;;25.00;80.70;;;;;;5072499;28;20179;-65
2021/10/30 07:50:07;;;;;;;1999.90;999.90;;;25.30;79.20;;;;;;5072767;28;20179;-65
2021/10/30 07:52:35;;;;;;;1999.90;999.90;;;25.80;72.60;;;;;;5072441;28;20161;-65
2021/10/30 07:55:02;;;;;;;1999.90;999.90;;;26.00;74.10;;;;;;5072396;28;20205;-65
2021/10/30 07:57:29;;;;;;;1999.90;999.90;;;25.70;70.40;;;;;;5072227;28;20165;-65
2021/10/30 07:59:55;;;;;;;1999.90;999.90;;;25.20;72.50;;;;;;5072335;28;20177;-65
2021/10/30 08:02:22;;;;;;;1999.90;999.90;;;25.20;71.30;;;;;;5072570;28;20627;-64
2021/10/30 08:04:49;;;;;;;1999.90;999.90;;;25.30;70.20;;;;;;5072473;28;20263;-65
2021/10/30 08:07:17;;;;;;;1999.90;999.90;;;25.20;70.20;;;;;;5072173;28;20526;-65
2021/10/30 08:09:45;;;;;;;1999.90;999.90;;;25.00;72.20;;;;;;5072188;28;20169;-65
2021/10/30 08:12:12;;;;;;;1999.90;999.90;;;25.20;71.00;;;;;;5072370;28;20175;-65
2021/10/30 08:14:40;;;;;;;1999.90;999.90;;;24.90;70.90;;;;;;5071825;28;20232;-65
2021/10/30 08:17:07;;;;;;;1999.90;999.90;;;25.20;72.70;;;;;;5072332;28;20168;-65
2021/10/30 08:19:34;;;;;;;1999.90;999.90;;;25.90;69.40;;;;;;5075953;28;20165;-65
2021/10/30 08:22:03;;;;;;;1999.90;999.90;;;26.70;66.80;;;;;;5075609;28;20180;-65
2021/10/30 08:24:30;;;;;;;1999.90;999.90;;;27.20;61.80;;;;;;5075738;28;20165;-65
2021/10/30 08:26:57;;;;;;;1999.90;999.90;;;27.60;59.60;;;;;;5075629;28;20184;-65
2021/10/30 08:29:24;;;;;;;1999.90;999.90;;;28.10;58.50;;;;;;5075646;28;20175;-65
2021/10/30 08:31:52;;;;;;;1999.90;999.90;;;28.20;60.00;;;;;;5075558;28;20172;-66
2021/10/30 08:34:19;;;;;;;1999.90;999.90;;;28.40;55.40;;;;;;5075361;28;20262;-66
2021/10/30 08:36:46;;;;;;;1999.90;999.90;;;27.80;56.30;;;;;;5075537;28;20623;-66
2021/10/30 08:39:13;;;;;;;1999.90;999.90;;;27.30;55.50;;;;;;5075548;28;20196;-65
2021/10/30 08:41:40;;;;;;;1999.90;999.90;;;27.40;57.60;;;;;;5075581;28;20223;-65
2021/10/30 08:44:07;;;;;;;1999.90;999.90;;;27.80;57.50;;;;;;5075435;28;20192;-65
2021/10/30 08:46:37;;;;;;;1999.90;999.90;;;27.80;57.00;;;;;;5075364;28;20615;-65
2021/10/30 08:49:06;;;;;;;1999.90;999.90;;;26.50;57.90;;;;;;5075342;28;20187;-65
2021/10/30 08:51:33;;;;;;;1999.90;999.90;;;27.70;58.30;;;;;;5075373;28;20169;-66
2021/10/30 08:54:01;;;;;;;1999.90;999.90;;;28.50;54.90;;;;;;5075368;28;20592;-65
2021/10/30 08:56:28;;;;;;;1999.90;999.90;;;28.00;55.80;;;;;;5075152;28;20245;-65
2021/10/30 08:58:55;;;;;;;1999.90;999.90;;;27.20;56.00;;;;;;5075273;28;20242;-66
2021/10/30 09:01:22;;;;;;;1999.90;999.90;;;27.70;55.40;;;;;;5075246;28;20168;-65
2021/10/30 09:04:01;;;;;;;1999.90;999.90;;;27.70;59.00;;;;;;5074845;28;20218;-65
2021/10/30 09:06:39;;;;;;;1999.90;999.90;;;29.20;53.40;;;;;;5075088;28;20672;-65
2021/10/30 09:09:13;;;;;;;1999.90;999.90;;;29.80;52.10;;;;;;5074988;28;20149;-67
2021/10/30 09:11:53;;;;;;;1999.90;999.90;;;30.20;50.30;;;;;;5075072;28;20157;-65
2021/10/30 09:14:25;;;;;;;1999.90;999.90;;;29.90;49.70;;;;;;5074607;28;20220;-65
2021/10/30 09:17:12;;;;;;;1999.90;999.90;;;30.10;49.70;;;;;;5074989;28;20168;-65
2021/10/30 09:19:42;;;;;;;1999.90;999.90;;;29.50;49.20;;;;;;5074463;28;20168;-65
2021/10/30 09:22:09;;;;;;;1999.90;999.90;;;28.50;51.20;;;;;;5074594;28;20169;-66
2021/10/30 09:25:00;;;;;;;1999.90;999.90;;;28.40;52.10;;;;;;5074699;28;20172;-65
2021/10/30 09:27:51;;;;;;;1999.90;999.90;;;28.90;51.60;;;;;;5074675;28;20157;-66
2021/10/30 09:30:21;;;;;;;1999.90;999.90;;;29.00;50.50;;;;;;5074194;28;20183;-65
2021/10/30 09:33:11;;;;;;;1999.90;999.90;;;29.40;50.10;;;;;;5074353;28;20248;-66
2021/10/30 09:35:44;;;;;;;1999.90;999.90;;;29.80;50.40;;;;;;5074327;28;20192;-65
2021/10/30 09:38:31;;;;;;;1999.90;999.90;;;30.10;50.70;;;;;;5074350;28;20180;-65
2021/10/30 09:41:01;;;;;;;1999.90;999.90;;;29.80;51.00;;;;;;5074464;28;20156;-66
2021/10/30 09:43:28;;;;;;;1999.90;999.90;;;30.00;49.30;;;;;;5074496;28;20191;-66
2021/10/30 09:46:04;;;;;;;1999.90;999.90;;;30.70;48.10;;;;;;5074383;28;20247;-66
2021/10/30 09:48:33;;;;;;;1999.90;999.90;;;30.80;48.50;;;;;;5074283;28;20156;-66
2021/10/30 09:51:02;;;;;;;1999.90;999.90;;;30.60;47.00;;;;;;5074297;28;20196;-65
2021/10/30 09:53:33;;;;;;;1999.90;999.90;;;30.90;47.70;;;;;;5073722;28;20185;-66
2021/10/30 09:56:10;;;;;;;1999.90;999.90;;;30.50;47.80;;;;;;5073896;28;20246;-65
2021/10/30 09:58:45;;;;;;;1999.90;999.90;;;30.90;48.20;;;;;;5072505;28;20272;-66
2021/10/30 10:01:21;;;;;;;1999.90;999.90;;;30.60;47.00;;;;;;5073470;28;20590;-66
2021/10/30 10:03:50;;;;;;;1999.90;999.90;;;30.90;45.80;;;;;;5073301;28;20164;-66
2021/10/30 10:06:25;;;;;;;1999.90;999.90;;;31.20;45.50;;;;;;5073836;28;20172;-66
2021/10/30 10:08:52;;;;;;;1999.90;999.90;;;30.80;45.60;;;;;;5073925;28;20152;-65
2021/10/30 10:11:20;;;;;;;1999.90;999.90;;;30.70;45.70;;;;;;5073908;28;20172;-66
2021/10/30 10:13:50;;;;;;;1999.90;999.90;;;30.50;47.90;;;;;;5073577;28;20160;-65
2021/10/30 10:16:21;;;;;;;1999.90;999.90;;;30.40;47.80;;;;;;5073780;28;20728;-65
2021/10/30 10:18:54;;;;;;;1999.90;999.90;;;30.00;48.30;;;;;;5073775;28;20222;-65
2021/10/30 10:21:24;;;;;;;1999.90;999.90;;;30.10;48.50;;;;;;5073748;28;20619;-66
2021/10/30 10:23:51;;;;;;;1999.90;999.90;;;29.70;47.60;;;;;;5073742;28;20167;-65
2021/10/30 10:26:18;;;;;;;1999.90;999.90;;;30.10;49.10;;;;;;5073641;28;20175;-66
2021/10/30 10:29:01;;;;;;;1999.90;999.90;;;29.90;46.90;;;;;;5073558;28;20164;-66
2021/10/30 10:31:27;;;;;;;1999.90;999.90;;;29.60;48.60;;;;;;5073532;28;20239;-66
2021/10/30 10:34:07;;;;;;;1999.90;999.90;;;29.90;49.40;;;;;;5073427;28;20179;-66
2021/10/30 10:36:35;;;;;;;1999.90;999.90;;;30.20;48.60;;;;;;5073305;28;20232;-66
2021/10/30 10:39:07;;;;;;;1999.90;999.90;;;30.10;48.50;;;;;;5073530;28;20179;-66
2021/10/30 10:41:43;;;;;;;1999.90;999.90;;;29.50;48.50;;;;;;5072874;28;20626;-66
2021/10/30 10:44:12;;;;;;;1999.90;999.90;;;30.10;48.60;;;;;;5073460;28;20200;-66
2021/10/30 10:46:50;;;;;;;1999.90;999.90;;;29.90;47.00;;;;;;5073346;28;20190;-66
2021/10/30 10:49:34;;;;;;;1999.90;999.90;;;30.40;48.70;;;;;;5073246;28;20618;-66
2021/10/30 10:52:20;;;;;;;1999.90;999.90;;;30.40;46.00;;;;;;5073109;28;20160;-66
2021/10/30 10:54:59;;;;;;;1999.90;999.90;;;30.20;47.60;;;;;;5072645;28;20203;-66
2021/10/30 10:57:33;;;;;;;1999.90;999.90;;;30.10;46.50;;;;;;5072928;28;20180;-66
2021/10/30 11:00:16;;;;;;;1999.90;999.90;;;29.60;48.70;;;;;;5073131;28;20574;-67
2021/10/30 11:02:49;;;;;;;1999.90;999.90;;;29.90;47.40;;;;;;5073046;28;20157;-67
2021/10/30 11:05:20;;;;;;;1999.90;999.90;;;30.10;46.60;;;;;;5072968;28;20230;-67
2021/10/30 11:07:50;;;;;;;1999.90;999.90;;;29.20;48.20;;;;;;5072918;28;20232;-67
2021/10/30 11:10:23;;;;;;;1999.90;999.90;;;28.90;49.20;;;;;;5072828;28;20172;-67
2021/10/30 11:13:09;;;;;;;1999.90;999.90;;;28.90;49.70;;;;;;5072988;28;20677;-67
2021/10/30 11:15:53;;;;;;;1999.90;999.90;;;28.40;49.80;;;;;;5072706;28;20231;-68
2021/10/30 11:18:26;;;;;;;1999.90;999.90;;;27.70;50.60;;;;;;5072895;28;20165;-65
2021/10/30 11:21:31;;;;;;;1999.90;999.90;;;28.30;50.50;;;;;;5072866;28;20717;-66
2021/10/30 11:24:00;;;;;;;1999.90;999.90;;;29.40;48.40;;;;;;5051514;28;20351;-66
2021/10/30 11:26:35;;;;;;;1999.90;999.90;;;30.00;48.10;;;;;;5072584;28;20537;-66
2021/10/30 11:29:07;;;;;;;1999.90;999.90;;;30.70;47.30;;;;;;5072561;28;20164;-67
2021/10/30 11:31:34;;;;;;;1999.90;999.90;;;31.10;46.80;;;;;;5072686;28;20676;-68
2021/10/30 11:34:03;;;;;;;1999.90;999.90;;;31.30;45.30;;;;;;5072653;28;20164;-66
2021/10/30 11:36:31;;;;;;;1999.90;999.90;;;31.10;45.60;;;;;;5072665;28;20295;-66
2021/10/30 11:39:00;;;;;;;1999.90;999.90;;;30.60;46.20;;;;;;5072601;28;20179;-66
2021/10/30 11:41:30;;;;;;;1999.90;999.90;;;30.80;45.60;;;;;;5072656;28;20165;-68
2021/10/30 11:44:09;;;;;;;1999.90;999.90;;;30.10;46.70;;;;;;5072744;28;20530;-67
2021/10/30 11:46:56;;;;;;;1999.90;999.90;;;29.00;48.40;;;;;;5072576;28;20645;-66
2021/10/30 11:49:31;;;;;;;1999.90;999.90;;;29.40;49.30;;;;;;5071376;28;20176;-66
2021/10/30 11:52:12;;;;;;;1999.90;999.90;;;29.80;48.10;;;;;;5074078;28;20202;-67
2021/10/30 11:54:39;;;;;;;1999.90;999.90;;;30.40;47.30;;;;;;5076346;28;20202;-66
2021/10/30 11:57:11;;;;;;;1999.90;999.90;;;30.40;46.70;;;;;;5076473;28;20167;-66
2021/10/30 11:59:44;;;;;;;1999.90;999.90;;;30.80;46.70;;;;;;5076363;28;20167;-66
2021/10/30 12:02:16;;;;;;;1999.90;999.90;;;30.80;46.40;;;;;;5076321;28;20506;-66
2021/10/30 12:04:43;;;;;;;1999.90;999.90;;;31.00;46.30;;;;;;5076011;28;20179;-66
2021/10/30 12:07:12;;;;;;;1999.90;999.90;;;31.00;45.90;;;;;;5076131;28;20163;-66